Time;durP1;ratioP1;P1;durP2;ratioP2;P2;SDS_P1;SDS_P2;PMS_P1;PMS_P2;Temp;Humidity;BMP_temperature;BMP_pressure;BME280_temperature;BME280_humidity;BME280_pressure;Samples;Min_cycle;Max_cycle;Signal;HPM_P1;HPM_P2
2021/03/20 00:01:05;;;;;;;6.10;4.70;;;3.50;1.00;;;;;;5095954;28;20188;-69
2021/03/20 00:03:30;;;;;;;8.38;5.60;;;3.40;1.00;;;;;;5096041;28;20202;-69
2021/03/20 00:05:56;;;;;;;12.03;5.33;;;3.30;1.00;;;;;;5095645;28;20167;-69
2021/03/20 00:08:24;;;;;;;6.30;4.60;;;3.70;1.00;;;;;;5095802;28;20190;-68
2021/03/20 00:10:51;;;;;;;4.80;4.25;;;3.70;1.00;;;;;;5095946;28;20195;-68
2021/03/20 00:13:23;;;;;;;8.95;5.10;;;3.50;1.00;;;;;;5095538;28;20248;-68
2021/03/20 00:15:52;;;;;;;5.57;4.55;;;3.70;1.00;;;;;;5095720;28;20152;-69
2021/03/20 00:18:18;;;;;;;4.55;4.15;;;3.50;1.00;;;;;;5095415;28;20156;-69
2021/03/20 00:20:44;;;;;;;5.17;4.03;;;3.50;1.00;;;;;;5094189;28;20182;-69
2021/03/20 00:23:10;;;;;;;5.53;4.70;;;3.30;1.00;;;;;;5095422;28;20408;-68
2021/03/20 00:25:36;;;;;;;7.63;5.63;;;3.40;1.00;;;;;;5095372;28;20178;-69
2021/03/20 00:28:04;;;;;;;5.55;4.53;;;3.40;1.00;;;;;;5095341;28;20171;-69
2021/03/20 00:30:30;;;;;;;6.22;4.50;;;3.50;1.00;;;;;;5095248;28;20673;-69
2021/03/20 00:32:55;;;;;;;7.18;4.28;;;3.50;1.00;;;;;;5095233;28;20675;-67
2021/03/20 00:35:23;;;;;;;6.37;4.70;;;3.50;1.00;;;;;;5095266;28;20181;-67
2021/03/20 00:37:50;;;;;;;7.00;5.30;;;3.40;1.00;;;;;;5095213;28;20166;-68
2021/03/20 00:40:20;;;;;;;6.00;4.25;;;3.10;1.00;;;;;;5095173;28;20202;-68
2021/03/20 00:42:45;;;;;;;5.88;4.70;;;3.10;1.00;;;;;;5095380;28;20256;-69
2021/03/20 00:45:13;;;;;;;7.70;4.90;;;3.20;1.00;;;;;;5095087;28;20159;-69
2021/03/20 00:47:39;;;;;;;5.55;4.20;;;3.20;1.00;;;;;;5095026;28;20164;-69
2021/03/20 00:50:07;;;;;;;5.37;4.60;;;3.00;1.00;;;;;;5094902;28;20198;-69
2021/03/20 00:52:32;;;;;;;4.53;4.10;;;3.10;1.00;;;;;;5094828;28;20191;-69
2021/03/20 00:54:58;;;;;;;5.07;4.57;;;2.90;1.00;;;;;;5095470;28;20174;-68
2021/03/20 00:57:24;;;;;;;9.03;6.43;;;3.00;1.00;;;;;;5094900;28;20164;-69
2021/03/20 00:59:49;;;;;;;7.07;5.97;;;3.00;1.00;;;;;;5094762;28;20383;-69
2021/03/20 01:02:15;;;;;;;9.20;6.00;;;2.90;1.00;;;;;;5094672;28;20278;-69
2021/03/20 01:04:40;;;;;;;7.43;5.73;;;2.70;1.00;;;;;;5094936;28;20256;-69
2021/03/20 01:07:06;;;;;;;8.60;5.40;;;2.80;1.00;;;;;;5094497;28;20187;-69
2021/03/20 01:09:32;;;;;;;7.20;5.43;;;2.90;1.00;;;;;;5094652;28;20167;-69
2021/03/20 01:11:58;;;;;;;6.23;5.63;;;2.80;1.00;;;;;;5094454;28;20565;-69
2021/03/20 01:14:25;;;;;;;6.18;5.18;;;2.60;1.00;;;;;;5094507;28;20167;-68
2021/03/20 01:16:51;;;;;;;8.32;4.72;;;2.50;1.00;;;;;;5094465;28;20156;-69
2021/03/20 01:19:16;;;;;;;6.30;5.20;;;2.60;1.00;;;;;;5094385;28;20250;-68
2021/03/20 01:21:42;;;;;;;6.20;4.90;;;2.70;1.00;;;;;;5094309;28;20403;-69
2021/03/20 01:24:08;;;;;;;5.60;4.43;;;2.80;1.00;;;;;;5094529;28;20244;-69
2021/03/20 01:26:34;;;;;;;4.87;4.43;;;2.80;1.00;;;;;;5092942;28;20175;-69
2021/03/20 01:28:59;;;;;;;5.07;4.53;;;2.90;1.00;;;;;;5094117;28;20394;-69
2021/03/20 01:31:25;;;;;;;5.90;5.33;;;2.60;1.00;;;;;;5094284;28;20199;-69
2021/03/20 01:33:51;;;;;;;6.23;5.53;;;2.40;1.00;;;;;;5094394;28;20171;-69
2021/03/20 01:36:16;;;;;;;5.57;4.60;;;2.30;1.00;;;;;;5093977;28;20402;-69
2021/03/20 01:38:42;;;;;;;5.67;4.70;;;2.40;1.00;;;;;;5093528;28;20171;-69
2021/03/20 01:41:17;;;;;;;8.10;5.10;;;2.50;1.00;;;;;;5094419;28;20532;-69
2021/03/20 01:43:44;;;;;;;6.22;4.72;;;2.40;1.00;;;;;;5093917;28;20194;-69
2021/03/20 01:46:43;;;;;;;5.70;4.78;;;2.30;1.00;;;;;;5093854;28;20179;-69
2021/03/20 01:49:27;;;;;;;6.63;5.18;;;2.40;1.00;;;;;;5094110;28;20506;-69
2021/03/20 01:52:18;;;;;;;7.18;5.85;;;2.30;1.00;;;;;;5093689;28;20203;-69
2021/03/20 01:55:08;;;;;;;6.65;4.90;;;2.20;1.00;;;;;;5083061;28;20637;-69
2021/03/20 01:57:41;;;;;;;7.78;5.63;;;2.10;1.00;;;;;;5093913;28;20168;-69
2021/03/20 02:00:13;;;;;;;5.63;4.97;;;2.30;1.00;;;;;;5093698;28;20152;-69
2021/03/20 02:02:39;;;;;;;8.50;5.10;;;2.40;1.00;;;;;;5093642;28;20671;-69
2021/03/20 02:05:07;;;;;;;4.93;4.37;;;2.10;1.00;;;;;;5093530;28;20167;-69
2021/03/20 02:07:33;;;;;;;14.48;4.75;;;1.80;1.00;;;;;;5093407;28;20432;-69
2021/03/20 02:09:58;;;;;;;5.63;5.13;;;1.70;1.00;;;;;;5093411;28;20232;-69
2021/03/20 02:12:30;;;;;;;5.43;4.70;;;1.70;1.00;;;;;;5093362;28;20270;-69
2021/03/20 02:15:07;;;;;;;5.53;4.60;;;1.70;1.00;;;;;;5093747;28;20617;-69
2021/03/20 02:17:38;;;;;;;6.70;5.30;;;1.50;1.00;;;;;;5093629;28;20151;-69
2021/03/20 02:20:26;;;;;;;7.28;4.90;;;1.50;1.00;;;;;;5093368;28;20630;-69
2021/03/20 02:23:10;;;;;;;7.38;5.38;;;1.50;1.00;;;;;;5093203;28;20191;-69
2021/03/20 02:25:55;;;;;;;8.50;5.75;;;1.50;1.00;;;;;;5093547;28;20143;-69
2021/03/20 02:28:50;;;;;;;6.28;5.28;;;1.50;1.00;;;;;;5093284;28;20155;-69
2021/03/20 02:31:41;;;;;;;9.55;5.10;;;1.60;1.00;;;;;;5093155;28;20240;-69
2021/03/20 02:34:19;;;;;;;8.20;5.97;;;1.40;1.00;;;;;;5055089;28;20180;-69
2021/03/20 02:36:55;;;;;;;7.25;5.28;;;1.50;1.00;;;;;;5093438;28;20508;-69
2021/03/20 02:39:52;;;;;;;5.57;4.95;;;1.40;1.00;;;;;;5093307;28;20230;-69
2021/03/20 02:42:44;;;;;;;8.63;5.72;;;1.60;1.00;;;;;;5051431;28;20541;-69
2021/03/20 02:45:36;;;;;;;5.60;4.70;;;1.60;1.00;;;;;;5093096;28;20152;-69
2021/03/20 02:48:11;;;;;;;7.70;5.60;;;1.70;1.00;;;;;;5093086;28;20182;-69
2021/03/20 02:50:51;;;;;;;7.15;6.20;;;1.90;1.00;;;;;;5092115;28;20187;-69
2021/03/20 02:53:38;;;;;;;5.85;4.55;;;1.80;1.00;;;;;;5093012;28;20179;-69
2021/03/20 02:56:07;;;;;;;6.47;5.50;;;2.00;1.00;;;;;;5093008;28;20147;-69
2021/03/20 02:58:52;;;;;;;6.88;5.35;;;2.20;1.00;;;;;;5091494;28;20172;-69
2021/03/20 03:01:22;;;;;;;6.75;5.60;;;2.40;1.00;;;;;;5093150;28;20160;-69
2021/03/20 03:03:50;;;;;;;8.38;5.60;;;2.30;1.00;;;;;;5092939;28;20213;-69
2021/03/20 03:06:40;;;;;;;6.45;4.78;;;2.30;1.00;;;;;;5092651;28;20179;-70
2021/03/20 03:09:13;;;;;;;6.28;5.35;;;2.40;1.00;;;;;;5093108;28;20152;-69
2021/03/20 03:11:47;;;;;;;7.18;5.45;;;2.40;1.00;;;;;;5092898;28;20198;-69
2021/03/20 03:14:24;;;;;;;6.20;4.85;;;2.40;1.00;;;;;;5093007;28;20160;-70
2021/03/20 03:16:57;;;;;;;5.90;4.93;;;2.40;1.00;;;;;;5092743;28;20151;-69
2021/03/20 03:19:25;;;;;;;15.30;8.80;;;2.20;1.00;;;;;;5092538;28;20171;-69
2021/03/20 03:21:54;;;;;;;5.57;4.55;;;2.20;1.00;;;;;;5092573;28;20191;-69
2021/03/20 03:24:24;;;;;;;6.13;4.50;;;2.30;1.00;;;;;;5092518;28;20206;-69
2021/03/20 03:26:54;;;;;;;4.75;3.63;;;2.20;1.00;;;;;;5092789;28;20600;-70
2021/03/20 03:29:24;;;;;;;5.78;4.20;;;2.10;1.00;;;;;;5092691;28;20570;-69
2021/03/20 03:32:23;;;;;;;5.03;3.45;;;2.10;1.00;;;;;;5092351;28;20676;-69
2021/03/20 03:34:58;;;;;;;4.40;3.88;;;1.90;1.00;;;;;;5092493;28;20172;-69
2021/03/20 03:37:39;;;;;;;6.68;4.35;;;1.80;1.00;;;;;;5092768;28;20239;-69
2021/03/20 03:40:13;;;;;;;4.30;3.65;;;1.60;1.00;;;;;;5093065;28;20152;-69
2021/03/20 03:42:38;;;;;;;4.80;3.30;;;1.70;1.00;;;;;;5092483;28;20189;-69
2021/03/20 03:45:09;;;;;;;4.43;3.37;;;1.60;1.00;;;;;;5092395;28;20242;-69
2021/03/20 03:47:36;;;;;;;5.30;3.70;;;1.50;1.00;;;;;;5092501;28;20588;-69
2021/03/20 03:50:12;;;;;;;3.75;3.08;;;1.70;1.00;;;;;;5092217;28;20163;-69
2021/03/20 03:52:38;;;;;;;3.90;3.10;;;1.60;1.00;;;;;;5092371;28;20183;-69
2021/03/20 03:55:06;;;;;;;7.97;3.63;;;1.50;1.00;;;;;;5092472;28;20221;-69
2021/03/20 03:57:50;;;;;;;4.38;2.30;;;1.50;1.00;;;;;;5091383;28;20290;-69
2021/03/20 04:00:47;;;;;;;5.50;3.25;;;1.30;1.00;;;;;;5092737;28;20221;-69
2021/03/20 04:03:34;;;;;;;3.38;2.63;;;1.30;1.00;;;;;;5094790;28;20183;-70
2021/03/20 04:06:08;;;;;;;5.82;2.58;;;1.40;1.00;;;;;;5095794;28;20171;-69
2021/03/20 04:09:10;;;;;;;2.65;2.45;;;1.20;1.00;;;;;;5095827;28;20163;-69
2021/03/20 04:11:48;;;;;;;5.63;2.60;;;1.30;1.00;;;;;;5095630;28;20551;-69
2021/03/20 04:14:41;;;;;;;3.47;2.53;;;1.30;1.00;;;;;;5095965;28;20635;-69
2021/03/20 04:17:16;;;;;;;5.93;2.53;;;1.30;1.00;;;;;;5095903;28;20151;-69
2021/03/20 04:20:08;;;;;;;3.22;2.50;;;1.30;1.00;;;;;;5094326;28;20679;-69
2021/03/20 04:22:55;;;;;;;8.40;2.95;;;1.60;1.00;;;;;;5095471;28;20282;-69
2021/03/20 04:25:45;;;;;;;5.35;2.20;;;1.50;1.00;;;;;;5095547;28;20269;-69
2021/03/20 04:28:35;;;;;;;2.78;2.33;;;1.40;1.00;;;;;;5095404;28;20587;-69
2021/03/20 04:31:27;;;;;;;4.80;2.70;;;1.40;1.00;;;;;;5096036;28;20590;-69
2021/03/20 04:34:32;;;;;;;4.32;2.78;;;1.40;1.00;;;;;;5095651;28;20158;-69
2021/03/20 04:37:03;;;;;;;3.40;2.53;;;1.30;1.00;;;;;;5064701;28;20198;-69
2021/03/20 04:39:33;;;;;;;3.60;2.63;;;1.30;1.00;;;;;;5095190;28;20164;-69
2021/03/20 04:42:00;;;;;;;3.30;2.65;;;1.20;1.00;;;;;;5093766;28;20194;-69
2021/03/20 04:44:27;;;;;;;3.10;2.58;;;1.10;1.00;;;;;;5095145;28;20167;-69
2021/03/20 04:46:53;;;;;;;3.00;2.25;;;1.40;1.00;;;;;;5095111;28;20179;-69
2021/03/20 04:49:46;;;;;;;5.05;3.40;;;1.40;1.00;;;;;;5095062;28;20174;-68
2021/03/20 04:52:22;;;;;;;5.88;2.47;;;1.60;1.00;;;;;;5094842;28;20202;-69
2021/03/20 04:54:48;;;;;;;4.75;3.28;;;1.70;1.00;;;;;;5094930;28;20158;-69
2021/03/20 04:57:29;;;;;;;3.65;2.75;;;1.70;1.00;;;;;;5094798;28;20540;-69
2021/03/20 05:00:09;;;;;;;5.22;2.65;;;1.90;1.00;;;;;;5095062;28;20148;-69
2021/03/20 05:03:05;;;;;;;3.15;2.30;;;1.70;1.00;;;;;;5094702;28;20179;-69
2021/03/20 05:05:46;;;;;;;6.00;2.60;;;1.70;1.00;;;;;;5094831;28;20184;-69
2021/03/20 05:08:15;;;;;;;3.33;2.15;;;1.40;1.00;;;;;;5094599;28;20194;-69
2021/03/20 05:11:08;;;;;;;4.72;2.22;;;1.30;1.00;;;;;;5094761;28;20184;-69
2021/03/20 05:13:50;;;;;;;2.85;2.53;;;1.40;1.00;;;;;;5093601;28;20180;-69
2021/03/20 05:16:15;;;;;;;4.35;2.35;;;1.60;1.00;;;;;;5095014;28;20173;-69
2021/03/20 05:18:42;;;;;;;8.20;4.30;;;1.60;1.00;;;;;;5093137;28;20254;-69
2021/03/20 05:21:11;;;;;;;5.45;2.30;;;1.20;1.00;;;;;;5094507;28;20163;-68
2021/03/20 05:23:37;;;;;;;3.88;2.55;;;1.10;1.00;;;;;;5094252;28;20202;-69
2021/03/20 05:26:02;;;;;;;3.43;1.90;;;1.20;1.00;;;;;;5094192;28;20168;-69
2021/03/20 05:28:31;;;;;;;3.53;3.17;;;1.20;1.00;;;;;;5094218;28;20667;-69
2021/03/20 05:30:59;;;;;;;3.45;2.60;;;1.00;1.00;;;;;;5094000;28;20225;-69
2021/03/20 05:33:25;;;;;;;2.95;2.58;;;1.10;1.00;;;;;;5093986;28;20232;-69
2021/03/20 05:35:51;;;;;;;4.63;2.28;;;1.20;1.00;;;;;;5094110;28;20175;-69
2021/03/20 05:38:17;;;;;;;2.80;2.07;;;1.30;1.00;;;;;;5094049;28;20164;-69
2021/03/20 05:40:42;;;;;;;4.20;2.67;;;1.30;1.00;;;;;;5093947;28;20199;-69
2021/03/20 05:43:26;;;;;;;5.03;2.63;;;1.10;1.00;;;;;;5093992;28;20687;-69
2021/03/20 05:46:18;;;;;;;3.20;2.33;;;1.10;1.00;;;;;;5093849;28;20205;-69
2021/03/20 05:49:28;;;;;;;5.00;2.30;;;1.20;1.00;;;;;;5093798;28;20170;-69
2021/03/20 05:52:17;;;;;;;4.75;2.47;;;1.20;1.00;;;;;;5072982;28;20242;-69
2021/03/20 05:54:57;;;;;;;3.35;2.60;;;1.00;1.00;;;;;;5093630;28;20168;-69
2021/03/20 05:57:34;;;;;;;4.35;2.55;;;1.10;1.00;;;;;;5093754;28;20156;-69
2021/03/20 06:00:15;;;;;;;3.00;1.95;;;1.40;1.00;;;;;;5093898;28;20162;-69
2021/03/20 06:03:13;;;;;;;5.25;2.20;;;1.50;1.00;;;;;;5092475;28;20187;-69
2021/03/20 06:05:55;;;;;;;4.00;2.65;;;1.70;1.00;;;;;;5094076;28;20158;-68
2021/03/20 06:08:30;;;;;;;2.47;1.90;;;1.40;1.00;;;;;;5093512;28;20156;-69
2021/03/20 06:11:29;;;;;;;3.45;2.35;;;1.20;1.00;;;;;;5093745;28;20179;-69
2021/03/20 06:14:06;;;;;;;2.63;1.75;;;1.30;1.00;;;;;;5093416;28;20235;-69
2021/03/20 06:16:37;;;;;;;4.40;2.25;;;1.30;1.00;;;;;;5093247;28;20692;-69
2021/03/20 06:19:20;;;;;;;6.80;2.85;;;1.60;1.00;;;;;;5093292;28;20195;-69
2021/03/20 06:22:06;;;;;;;4.80;2.72;;;1.80;1.00;;;;;;5093255;28;20198;-69
2021/03/20 06:24:50;;;;;;;6.53;2.78;;;1.40;1.00;;;;;;5093329;28;20178;-69
2021/03/20 06:27:20;;;;;;;4.53;1.85;;;1.40;1.00;;;;;;5093163;28;20174;-68
2021/03/20 06:30:05;;;;;;;3.25;2.17;;;1.30;1.00;;;;;;5093551;28;20191;-69
2021/03/20 06:32:37;;;;;;;6.60;2.95;;;1.40;1.00;;;;;;5093310;28;20195;-69
2021/03/20 06:35:07;;;;;;;3.38;2.47;;;1.40;1.00;;;;;;5093627;28;20148;-69
2021/03/20 06:37:37;;;;;;;3.92;2.00;;;1.40;1.00;;;;;;5093886;28;20595;-69
2021/03/20 06:40:37;;;;;;;2.80;1.73;;;1.40;1.00;;;;;;5093878;28;20162;-69
2021/03/20 06:43:03;;;;;;;3.42;2.05;;;1.60;1.00;;;;;;5089001;28;20195;-68
2021/03/20 06:45:31;;;;;;;4.50;2.20;;;1.80;1.00;;;;;;5093068;28;20601;-69
2021/03/20 06:48:09;;;;;;;3.08;2.70;;;1.70;1.00;;;;;;5092930;28;20187;-69
2021/03/20 06:50:48;;;;;;;3.88;2.60;;;1.60;1.00;;;;;;5093128;28;20209;-69
2021/03/20 06:53:17;;;;;;;3.58;2.50;;;1.70;1.00;;;;;;5092802;28;20183;-69
2021/03/20 06:55:46;;;;;;;7.03;3.17;;;1.70;1.00;;;;;;5092730;28;20225;-69
2021/03/20 06:58:26;;;;;;;4.03;2.78;;;1.90;1.00;;;;;;5093211;28;20164;-69
2021/03/20 07:00:52;;;;;;;4.22;2.80;;;2.30;1.00;;;;;;5091477;28;20513;-69
2021/03/20 07:03:55;;;;;;;3.50;2.43;;;2.60;1.00;;;;;;5092779;28;20209;-69
2021/03/20 07:06:53;;;;;;;6.35;3.00;;;2.50;1.00;;;;;;5092762;28;20486;-69
2021/03/20 07:09:18;;;;;;;5.70;3.40;;;2.20;1.00;;;;;;5093039;28;20191;-69
2021/03/20 07:12:09;;;;;;;3.90;2.40;;;2.20;1.00;;;;;;5092687;28;20234;-69
2021/03/20 07:14:53;;;;;;;5.82;3.20;;;2.30;1.00;;;;;;5093643;28;20151;-68
2021/03/20 07:17:22;;;;;;;8.05;2.67;;;2.70;1.00;;;;;;5092743;28;20143;-68
2021/03/20 07:20:10;;;;;;;4.18;2.95;;;2.80;1.00;;;;;;5093182;28;20159;-69
2021/03/20 07:22:47;;;;;;;3.50;2.88;;;2.50;1.00;;;;;;5093570;28;20668;-69
2021/03/20 07:25:21;;;;;;;4.35;2.70;;;2.50;1.00;;;;;;5093389;28;20572;-68
2021/03/20 07:27:47;;;;;;;4.43;3.55;;;2.80;1.00;;;;;;5092565;28;20167;-68
2021/03/20 07:30:37;;;;;;;5.83;3.07;;;3.00;1.00;;;;;;5092645;28;20262;-68
2021/03/20 07:33:22;;;;;;;6.28;3.15;;;3.00;1.00;;;;;;5092535;28;20188;-68
2021/03/20 07:35:47;;;;;;;3.95;2.83;;;3.10;1.00;;;;;;5092637;28;20631;-69
2021/03/20 07:38:26;;;;;;;8.47;3.53;;;3.40;1.00;;;;;;5095261;28;20250;-68
2021/03/20 07:41:11;;;;;;;5.95;3.00;;;3.70;1.00;;;;;;5096682;28;20175;-70
2021/03/20 07:43:37;;;;;;;8.80;3.83;;;3.60;99.90;;;;;;5096370;28;20195;-69
2021/03/20 07:46:11;;;;;;;5.97;3.50;;;3.40;1.00;;;;;;5096197;28;20505;-69
2021/03/20 07:48:37;;;;;;;4.10;3.13;;;3.40;1.00;;;;;;5096347;28;20166;-69
2021/03/20 07:51:05;;;;;;;4.20;3.50;;;3.40;99.90;;;;;;5096430;28;20192;-69
2021/03/20 07:53:40;;;;;;;5.82;3.30;;;3.20;1.00;;;;;;5096129;28;20205;-69
2021/03/20 07:56:12;;;;;;;8.13;3.70;;;3.70;1.00;;;;;;5095997;28;20209;-69
2021/03/20 07:58:44;;;;;;;4.60;2.70;;;3.80;99.90;;;;;;5095933;28;20189;-69
2021/03/20 08:01:21;;;;;;;5.43;3.75;;;3.90;99.90;;;;;;5096101;28;20159;-69
2021/03/20 08:03:50;;;;;;;4.97;3.60;;;3.60;99.90;;;;;;5095781;28;20532;-69
2021/03/20 08:06:19;;;;;;;3.45;2.58;;;3.70;99.90;;;;;;5095766;28;20620;-68
2021/03/20 08:08:45;;;;;;;4.32;3.33;;;3.70;99.90;;;;;;5095929;28;20186;-69
2021/03/20 08:11:32;;;;;;;6.23;3.37;;;3.70;99.90;;;;;;5095716;28;20199;-69
2021/03/20 08:14:06;;;;;;;4.88;3.35;;;3.90;99.90;;;;;;5096039;28;20212;-69
2021/03/20 08:16:31;;;;;;;4.78;3.80;;;4.40;99.90;;;;;;5095791;28;20171;-68
2021/03/20 08:18:57;;;;;;;5.20;3.50;;;4.70;99.90;;;;;;5095735;28;20244;-69
2021/03/20 08:21:26;;;;;;;5.18;3.63;;;4.40;99.90;;;;;;5095636;28;20753;-69
2021/03/20 08:24:19;;;;;;;4.45;3.83;;;4.60;99.90;;;;;;5095493;28;20171;-69
2021/03/20 08:27:11;;;;;;;4.38;3.22;;;4.90;99.90;;;;;;5095540;28;20201;-69
2021/03/20 08:30:15;;;;;;;7.03;4.00;;;5.10;99.90;;;;;;5095468;28;20154;-69
2021/03/20 08:32:47;;;;;;;3.80;3.30;;;5.20;99.90;;;;;;5095400;28;20274;-69
2021/03/20 08:35:24;;;;;;;3.75;2.63;;;5.20;99.90;;;;;;5095906;28;20155;-69
2021/03/20 08:38:13;;;;;;;3.72;2.63;;;5.40;99.90;;;;;;5095505;28;20209;-69
2021/03/20 08:41:02;;;;;;;5.07;3.05;;;5.30;99.90;;;;;;5095439;28;20152;-69
2021/03/20 08:43:45;;;;;;;4.50;2.63;;;5.40;99.90;;;;;;5094658;28;20228;-69
2021/03/20 08:46:36;;;;;;;8.15;3.67;;;5.30;99.90;;;;;;5095260;28;20152;-68
2021/03/20 08:49:14;;;;;;;3.63;2.85;;;5.40;99.90;;;;;;5094056;28;20187;-69
2021/03/20 08:51:54;;;;;;;13.57;4.78;;;5.30;99.90;;;;;;5094696;28;20575;-69
2021/03/20 08:54:47;;;;;;;4.82;2.88;;;5.90;99.90;;;;;;5095084;28;20189;-69
2021/03/20 08:57:42;;;;;;;3.50;1.98;;;5.50;99.90;;;;;;5094831;28;20293;-69
2021/03/20 09:00:26;;;;;;;5.85;2.05;;;5.90;99.90;;;;;;5059866;28;20202;-69
2021/03/20 09:02:55;;;;;;;2.25;1.42;;;6.10;99.90;;;;;;5094405;28;20660;-68
2021/03/20 09:05:27;;;;;;;8.15;2.55;;;6.10;99.90;;;;;;5094607;28;20478;-69
2021/03/20 09:07:59;;;;;;;3.78;2.85;;;6.20;99.90;;;;;;5094706;28;20196;-68
2021/03/20 09:10:39;;;;;;;4.50;2.28;;;5.90;99.90;;;;;;5094229;28;20190;-69
2021/03/20 09:13:21;;;;;;;5.28;2.03;;;6.20;99.90;;;;;;5094543;28;20191;-69
2021/03/20 09:15:54;;;;;;;9.32;2.58;;;6.70;99.90;;;;;;5094351;28;20164;-68
2021/03/20 09:18:21;;;;;;;4.53;2.63;;;5.90;99.90;;;;;;5094249;28;20152;-69
2021/03/20 09:20:49;;;;;;;4.45;1.60;;;6.20;99.90;;;;;;5093922;28;20193;-69
2021/03/20 09:23:30;;;;;;;7.25;2.72;;;6.40;99.90;;;;;;5093954;28;20195;-69
2021/03/20 09:26:02;;;;;;;3.95;2.38;;;6.90;99.90;;;;;;5094201;28;20591;-69
2021/03/20 09:28:50;;;;;;;7.85;1.77;;;6.90;99.90;;;;;;5094123;28;20230;-70
2021/03/20 09:31:31;;;;;;;1.90;1.63;;;7.30;99.90;;;;;;5093845;28;20206;-69
2021/03/20 09:33:59;;;;;;;3.15;1.58;;;7.00;99.90;;;;;;5095172;28;20636;-69
2021/03/20 09:36:28;;;;;;;3.53;1.77;;;6.90;99.90;;;;;;5093909;28;20164;-69
2021/03/20 09:38:57;;;;;;;4.18;2.20;;;7.10;99.90;;;;;;5093875;28;20163;-69
2021/03/20 09:41:24;;;;;;;4.25;1.77;;;7.30;99.90;;;;;;5093741;28;20201;-69
2021/03/20 09:44:09;;;;;;;5.20;2.00;;;7.30;99.90;;;;;;5093392;28;20266;-68
2021/03/20 09:46:38;;;;;;;2.65;1.95;;;6.60;99.90;;;;;;5094230;28;20294;-68
2021/03/20 09:49:06;;;;;;;2.78;1.77;;;6.90;99.90;;;;;;5093705;28;20199;-68
2021/03/20 09:51:54;;;;;;;1.95;1.60;;;7.00;99.90;;;;;;5093404;28;20195;-68
2021/03/20 09:54:26;;;;;;;2.90;2.10;;;7.10;99.90;;;;;;5093905;28;20191;-69
2021/03/20 09:56:52;;;;;;;12.38;2.30;;;7.30;99.90;;;;;;5093373;28;20164;-68
2021/03/20 09:59:27;;;;;;;3.97;2.28;;;7.90;99.90;;;;;;5093427;28;20241;-69
2021/03/20 10:01:58;;;;;;;4.10;1.70;;;8.10;99.90;;;;;;5093196;28;20190;-69
2021/03/20 10:04:51;;;;;;;3.10;2.38;;;7.20;99.90;;;;;;5093398;28;20521;-68
2021/03/20 10:07:22;;;;;;;3.58;2.10;;;7.90;99.90;;;;;;5093454;28;20611;-69
2021/03/20 10:10:10;;;;;;;2.63;2.00;;;8.60;99.90;;;;;;5093556;28;20171;-69
2021/03/20 10:12:44;;;;;;;5.63;2.35;;;8.30;99.90;;;;;;5093079;28;20195;-68
2021/03/20 10:15:16;;;;;;;3.20;2.03;;;8.50;99.90;;;;;;5093309;28;20198;-69
2021/03/20 10:18:00;;;;;;;1.70;1.60;;;8.80;99.90;;;;;;5093131;28;20567;-68
2021/03/20 10:20:41;;;;;;;4.18;1.40;;;8.40;99.90;;;;;;5093081;28;20163;-68
2021/03/20 10:23:48;;;;;;;2.45;1.20;;;8.00;99.90;;;;;;5092830;28;20270;-68
2021/03/20 10:26:19;;;;;;;3.55;1.85;;;7.20;99.90;;;;;;5092723;28;20663;-69
2021/03/20 10:28:50;;;;;;;4.80;2.28;;;7.20;99.90;;;;;;5092997;28;20171;-68
2021/03/20 10:31:17;;;;;;;2.83;1.80;;;7.50;99.90;;;;;;5092623;28;20199;-69
2021/03/20 10:33:44;;;;;;;4.32;1.70;;;8.50;99.90;;;;;;5092610;28;20189;-69
2021/03/20 10:36:21;;;;;;;4.95;2.10;;;8.00;99.90;;;;;;5092865;28;20225;-69
2021/03/20 10:38:49;;;;;;;2.95;2.15;;;8.90;99.90;;;;;;5092712;28;20151;-68
2021/03/20 10:41:32;;;;;;;1.75;1.50;;;8.90;99.90;;;;;;5092619;28;20164;-69
2021/03/20 10:44:01;;;;;;;4.95;2.08;;;9.30;99.90;;;;;;5092937;28;20156;-68
2021/03/20 10:46:30;;;;;;;2.03;1.30;;;9.00;99.90;;;;;;5093259;28;20198;-69
2021/03/20 10:48:58;;;;;;;2.85;1.90;;;9.50;99.90;;;;;;5092521;28;20163;-69
2021/03/20 10:51:27;;;;;;;3.70;1.57;;;9.70;99.90;;;;;;5092537;28;20203;-69
2021/03/20 10:54:07;;;;;;;1.97;1.67;;;10.30;99.90;;;;;;5092708;28;20458;-69
2021/03/20 10:56:37;;;;;;;2.50;1.90;;;10.30;99.90;;;;;;5092774;28;20754;-68
2021/03/20 10:59:27;;;;;;;2.60;1.90;;;9.30;99.90;;;;;;5092696;28;20148;-68
2021/03/20 11:01:53;;;;;;;3.67;2.13;;;9.20;99.90;;;;;;5092622;28;20194;-68
2021/03/20 11:04:26;;;;;;;3.92;2.40;;;9.60;99.90;;;;;;5092871;28;20586;-69
2021/03/20 11:06:54;;;;;;;4.72;2.38;;;8.90;99.90;;;;;;5092827;28;20187;-69
2021/03/20 11:09:26;;;;;;;4.03;2.30;;;9.10;99.90;;;;;;5092602;28;20171;-69
2021/03/20 11:12:10;;;;;;;2.90;1.77;;;9.50;99.90;;;;;;5093014;28;20212;-69
2021/03/20 11:14:54;;;;;;;4.80;2.00;;;10.50;99.90;;;;;;5096646;28;20397;-69
2021/03/20 11:17:23;;;;;;;3.33;1.90;;;10.40;99.90;;;;;;5096598;28;20387;-69
2021/03/20 11:19:58;;;;;;;3.03;2.10;;;10.90;99.90;;;;;;5096624;28;20851;-69
2021/03/20 11:22:32;;;;;;;4.80;2.28;;;9.20;99.90;;;;;;5096535;28;20395;-69
2021/03/20 11:25:02;;;;;;;4.20;2.63;;;9.50;99.90;;;;;;5096516;28;20163;-69
2021/03/20 11:27:40;;;;;;;2.33;2.10;;;10.00;99.90;;;;;;5096547;28;20174;-69
2021/03/20 11:30:21;;;;;;;2.70;1.57;;;11.10;99.90;;;;;;5096261;28;20152;-69
2021/03/20 11:32:49;;;;;;;2.92;2.30;;;10.10;99.90;;;;;;5096162;28;20417;-69
2021/03/20 11:35:25;;;;;;;4.20;2.60;;;10.20;99.90;;;;;;5096499;28;20243;-69
2021/03/20 11:37:52;;;;;;;3.70;2.00;;;10.90;99.90;;;;;;5096281;28;20865;-68
2021/03/20 11:40:30;;;;;;;6.67;2.20;;;11.40;99.90;;;;;;5096282;28;20379;-69
2021/03/20 11:43:01;;;;;;;3.83;2.30;;;10.50;99.90;;;;;;5096214;28;20394;-68
2021/03/20 11:45:34;;;;;;;5.87;2.33;;;11.60;99.90;;;;;;5096293;28;20372;-68
2021/03/20 11:48:20;;;;;;;2.30;1.80;;;11.90;99.90;;;;;;5096131;28;20670;-69
2021/03/20 11:50:55;;;;;;;6.83;2.13;;;11.50;99.90;;;;;;5095608;28;20467;-68
2021/03/20 11:53:41;;;;;;;3.77;2.10;;;10.20;99.90;;;;;;5095981;28;20798;-68
2021/03/20 11:56:18;;;;;;;3.67;2.10;;;10.50;99.90;;;;;;5096319;28;20393;-69
2021/03/20 11:59:33;;;;;;;4.47;3.07;;;11.90;99.90;;;;;;5095964;28;20714;-69
2021/03/20 12:01:58;;;;;;;5.90;2.00;;;11.30;99.90;;;;;;5089264;28;20451;-68
2021/03/20 12:04:27;;;;;;;2.20;1.70;;;9.60;99.90;;;;;;5095577;28;20401;-69
2021/03/20 12:07:12;;;;;;;3.13;1.77;;;11.20;99.90;;;;;;5095736;28;20747;-69
2021/03/20 12:09:38;;;;;;;3.33;2.20;;;11.40;99.90;;;;;;5095588;28;20386;-69
2021/03/20 12:12:04;;;;;;;4.53;1.83;;;10.40;99.90;;;;;;5095888;28;20460;-68
2021/03/20 12:14:42;;;;;;;4.00;1.90;;;9.60;99.90;;;;;;5095677;28;20164;-69
2021/03/20 12:17:19;;;;;;;1.97;1.43;;;9.30;99.90;;;;;;5095455;28;20409;-69
2021/03/20 12:20:08;;;;;;;3.38;1.65;;;9.60;99.90;;;;;;5095627;28;20394;-69
2021/03/20 12:22:42;;;;;;;3.20;1.70;;;10.00;99.90;;;;;;5095702;28;20184;-69
2021/03/20 12:25:33;;;;;;;6.03;2.90;;;10.40;99.90;;;;;;5095359;28;20197;-69
2021/03/20 12:28:17;;;;;;;3.40;2.00;;;10.60;99.90;;;;;;5095491;28;20381;-68
2021/03/20 12:30:42;;;;;;;4.60;2.03;;;11.00;99.90;;;;;;5095127;28;20484;-69
2021/03/20 12:33:11;;;;;;;3.50;2.47;;;12.10;99.90;;;;;;5095071;28;20706;-69
2021/03/20 12:35:48;;;;;;;2.13;1.80;;;12.60;99.90;;;;;;5095111;28;20654;-69
2021/03/20 12:38:36;;;;;;;2.47;1.93;;;10.50;99.90;;;;;;5095075;28;20905;-69
2021/03/20 12:41:03;;;;;;;4.00;2.20;;;10.60;99.90;;;;;;5095670;28;20392;-69
2021/03/20 12:43:37;;;;;;;3.30;2.23;;;10.30;99.90;;;;;;5095051;28;20415;-69
2021/03/20 12:46:07;;;;;;;2.80;1.73;;;11.90;99.90;;;;;;5095137;28;20386;-69
2021/03/20 12:48:42;;;;;;;2.37;1.53;;;11.20;99.90;;;;;;5095112;28;20912;-69
2021/03/20 12:51:20;;;;;;;5.80;2.03;;;10.70;99.90;;;;;;5095048;28;20433;-69
2021/03/20 12:53:46;;;;;;;3.10;1.60;;;11.40;99.90;;;;;;5094903;28;20381;-69
2021/03/20 12:56:12;;;;;;;6.07;1.70;;;12.40;99.90;;;;;;5094849;28;20454;-69
2021/03/20 12:58:37;;;;;;;1.53;1.27;;;12.90;99.90;;;;;;5094602;28;20191;-69
2021/03/20 13:01:03;;;;;;;4.40;2.60;;;11.40;99.90;;;;;;5094824;28;20559;-68
2021/03/20 13:03:32;;;;;;;3.27;1.57;;;11.20;99.90;;;;;;5094798;28;20703;-68
2021/03/20 13:05:58;;;;;;;6.30;2.27;;;11.40;99.90;;;;;;5094483;28;20168;-69
2021/03/20 13:08:23;;;;;;;5.47;2.30;;;11.30;99.90;;;;;;5094767;28;20394;-68
2021/03/20 13:10:49;;;;;;;3.10;2.40;;;12.80;99.90;;;;;;5094558;28;20191;-69
2021/03/20 13:13:14;;;;;;;1.93;1.40;;;13.40;99.90;;;;;;5094418;28;20183;-69
2021/03/20 13:15:40;;;;;;;3.87;1.97;;;13.40;99.90;;;;;;5094459;28;20532;-69
2021/03/20 13:18:06;;;;;;;4.03;2.03;;;13.60;99.90;;;;;;5094481;28;20159;-69
2021/03/20 13:20:31;;;;;;;2.70;1.97;;;12.90;99.90;;;;;;5094305;28;20183;-69
2021/03/20 13:22:57;;;;;;;5.10;2.10;;;11.70;99.90;;;;;;5094387;28;20189;-69
2021/03/20 13:25:32;;;;;;;6.90;1.97;;;11.70;99.90;;;;;;5094292;28;20172;-68
2021/03/20 13:27:58;;;;;;;3.87;2.00;;;11.80;99.90;;;;;;5094238;28;20254;-68
2021/03/20 13:30:29;;;;;;;4.10;1.90;;;12.40;99.90;;;;;;5094073;28;20894;-69
2021/03/20 13:32:55;;;;;;;2.50;1.73;;;13.10;99.90;;;;;;5094177;28;20821;-68
2021/03/20 13:35:24;;;;;;;2.90;1.70;;;12.30;99.90;;;;;;5093456;28;20792;-67
2021/03/20 13:37:50;;;;;;;3.37;2.10;;;11.80;99.90;;;;;;5093723;28;20380;-68
2021/03/20 13:40:15;;;;;;;3.53;1.80;;;12.70;99.90;;;;;;5093989;28;20405;-68
2021/03/20 13:42:41;;;;;;;1.63;1.30;;;14.10;99.90;;;;;;5093694;28;20467;-69